Time;durP1;ratioP1;P1;durP2;ratioP2;P2;SDS_P1;SDS_P2;PMS_P1;PMS_P2;Temp;Humidity;BMP_temperature;BMP_pressure;BME280_temperature;BME280_humidity;BME280_pressure;Samples;Min_cycle;Max_cycle;Signal;HPM_P1;HPM_P2
2024/01/10 00:01:57;;;;;;;3.60;2.22;;;;;;;0.29;75.14;101803.66;5038005;28;20116;-46
2024/01/10 00:04:24;;;;;;;2.03;1.92;;;;;;;0.25;75.29;101794.94;5045136;28;20057;-47
2024/01/10 00:06:52;;;;;;;3.30;1.13;;;;;;;0.27;75.15;101794.16;5045684;28;20049;-49
2024/01/10 00:09:19;;;;;;;0.63;0.35;;;;;;;0.24;76.03;101790.59;5043762;28;20052;-51
2024/01/10 00:11:46;;;;;;;3.53;2.13;;;;;;;0.24;75.18;101794.84;5040742;28;20049;-44
2024/01/10 00:14:13;;;;;;;4.80;2.05;;;;;;;0.24;75.00;101795.69;5044847;28;20102;-51
2024/01/10 00:16:39;;;;;;;9.00;1.92;;;;;;;0.24;75.14;101790.59;5042512;28;20064;-47
2024/01/10 00:19:06;;;;;;;4.55;0.88;;;;;;;0.24;75.02;101790.59;5046727;28;20460;-47
2024/01/10 00:21:35;;;;;;;3.42;2.55;;;;;;;0.23;75.23;101782.84;5043704;28;20044;-41
2024/01/10 00:24:02;;;;;;;5.70;2.88;;;;;;;0.24;75.22;101777.84;5045427;28;20071;-48
2024/01/10 00:26:28;;;;;;;4.85;1.80;;;;;;;0.25;75.19;101782.19;5042949;28;20099;-42
2024/01/10 00:28:55;;;;;;;3.85;2.03;;;;;;;0.25;76.18;101777.09;5045745;28;20051;-50
2024/01/10 00:31:30;;;;;;;3.15;2.45;;;;;;;0.28;74.88;101767.88;5045818;28;20061;-43
2024/01/10 00:33:57;;;;;;;5.15;2.05;;;;;;;0.27;75.34;101772.06;5041724;28;20075;-43
2024/01/10 00:36:26;;;;;;;4.38;2.08;;;;;;;0.30;76.24;101763.78;5042929;28;20044;-50
2024/01/10 00:38:52;;;;;;;4.00;1.92;;;;;;;0.24;76.51;101760.00;5041856;28;20662;-44
2024/01/10 00:41:20;;;;;;;4.88;2.13;;;;;;;0.30;76.75;101776.53;5049542;28;20056;-46
2024/01/10 00:43:48;;;;;;;3.05;1.98;;;;;;;0.31;76.63;101765.53;5043708;28;20072;-46
2024/01/10 00:46:15;;;;;;;13.05;2.50;;;;;;;0.31;76.09;101768.09;5048872;28;20135;-42
2024/01/10 00:48:42;;;;;;;1.45;0.80;;;;;;;0.33;76.81;101763.94;5044399;28;20037;-45
2024/01/10 00:51:08;;;;;;;5.10;1.40;;;;;;;0.32;75.90;101752.91;5044147;28;20072;-45
2024/01/10 00:53:38;;;;;;;4.47;2.53;;;;;;;0.32;75.80;101754.53;5051563;28;20045;-45
2024/01/10 00:56:06;;;;;;;5.70;2.25;;;;;;;0.33;76.95;101753.75;5038341;28;20497;-47
2024/01/10 00:58:33;;;;;;;1.52;1.25;;;;;;;0.33;75.81;101758.84;5049269;28;20118;-48
2024/01/10 01:01:00;;;;;;;3.97;1.95;;;;;;;0.35;76.08;101754.75;5047043;28;20053;-51
2024/01/10 01:03:27;;;;;;;1.83;1.30;;;;;;;0.36;75.85;101753.97;5050546;28;20697;-48
2024/01/10 01:05:57;;;;;;;1.52;1.40;;;;;;;0.34;77.17;101746.22;5048318;28;20053;-47
2024/01/10 01:08:25;;;;;;;0.88;0.30;;;;;;;0.36;77.12;101742.13;5042028;28;20135;-48
2024/01/10 01:10:52;;;;;;;4.60;2.15;;;;;;;0.39;77.35;101741.44;5045577;28;20625;-48
2024/01/10 01:13:19;;;;;;;8.10;1.98;;;;;;;0.41;76.94;101742.44;5046212;28;20145;-40
2024/01/10 01:15:46;;;;;;;6.32;3.17;;;;;;;0.39;77.08;101736.34;5045607;28;20049;-47
2024/01/10 01:18:16;;;;;;;1.45;1.35;;;;;;;0.38;77.25;101739.69;5042020;28;20045;-49
2024/01/10 01:20:44;;;;;;;9.48;2.33;;;;;;;0.38;76.55;101730.34;5042677;28;20061;-44
2024/01/10 01:23:10;;;;;;;2.75;1.95;;;;;;;0.38;76.48;101737.13;5041759;28;20056;-50
2024/01/10 01:25:37;;;;;;;1.67;1.50;;;;;;;0.40;76.06;101735.53;5044614;28;20132;-48
2024/01/10 01:28:04;;;;;;;5.38;1.90;;;;;;;0.38;76.12;101726.94;5040084;28;20128;-43
2024/01/10 01:30:31;;;;;;;3.35;2.90;;;;;;;0.39;76.69;101738.88;5049601;28;20052;-49
2024/01/10 01:32:59;;;;;;;1.70;0.60;;;;;;;0.42;75.95;101733.09;5046122;28;20072;-48
2024/01/10 01:35:27;;;;;;;2.03;1.85;;;;;;;0.38;76.42;101729.47;5047362;28;20048;-43
2024/01/10 01:37:54;;;;;;;3.85;1.80;;;;;;;0.40;77.11;101734.69;5041655;28;20045;-45
2024/01/10 01:40:21;;;;;;;6.50;2.30;;;;;;;0.40;76.12;101730.44;5047074;28;20664;-49
2024/01/10 01:42:48;;;;;;;3.05;1.85;;;;;;;0.42;77.19;101728.00;5036519;28;20060;-46
2024/01/10 01:45:15;;;;;;;4.88;1.98;;;;;;;0.41;77.45;101727.13;5037614;28;20502;-47
2024/01/10 01:47:42;;;;;;;2.72;2.05;;;;;;;0.44;77.16;101723.91;5046652;28;20080;-45
2024/01/10 01:50:09;;;;;;;6.40;2.03;;;;;;;0.41;76.57;101716.94;5044828;28;20048;-45
2024/01/10 01:52:37;;;;;;;6.65;0.60;;;;;;;0.43;77.22;101725.56;5037621;28;20052;-45
2024/01/10 01:55:07;;;;;;;7.97;1.23;;;;;;;0.44;77.33;101727.31;5036520;28;20072;-52
2024/01/10 01:57:35;;;;;;;6.57;2.53;;;;;;;0.43;77.29;101725.56;5045504;28;20055;-45
2024/01/10 02:00:04;;;;;;;3.75;1.83;;;;;;;0.41;76.11;101727.13;5046588;28;20055;-43
2024/01/10 02:02:31;;;;;;;1.77;1.67;;;;;;;0.43;77.43;101735.75;5042568;28;20053;-44
2024/01/10 02:04:58;;;;;;;5.05;2.28;;;;;;;0.43;77.51;101745.94;5048051;28;20049;-50
2024/01/10 02:07:27;;;;;;;1.60;1.33;;;;;;;0.45;76.89;101733.31;5037978;28;20098;-49
2024/01/10 02:09:53;;;;;;;4.45;0.70;;;;;;;0.43;76.68;101733.19;5042646;28;20474;-43
2024/01/10 02:12:20;;;;;;;5.32;1.67;;;;;;;0.45;77.21;101736.75;5041156;28;20053;-45
2024/01/10 02:14:47;;;;;;;4.25;2.33;;;;;;;0.44;77.54;101745.16;5037358;28;20049;-49
2024/01/10 02:17:14;;;;;;;4.93;2.40;;;;;;;0.45;77.28;101744.41;5040142;28;20045;-47
2024/01/10 02:19:41;;;;;;;5.97;2.33;;;;;;;0.44;76.07;101740.06;5041169;28;20045;-43
2024/01/10 02:22:07;;;;;;;2.17;1.77;;;;;;;0.44;76.04;101740.06;5046609;28;20053;-47
2024/01/10 02:24:34;;;;;;;2.22;0.30;;;;;;;0.44;77.01;101740.06;5045897;28;20049;-46
2024/01/10 02:27:03;;;;;;;1.50;0.50;;;;;;;0.44;76.66;101737.50;5040563;28;20542;-47
2024/01/10 02:29:30;;;;;;;3.72;0.63;;;;;;;0.43;76.39;101745.94;5043666;28;20507;-46
2024/01/10 02:31:57;;;;;;;2.55;1.88;;;;;;;0.42;76.43;101743.28;5042311;28;20053;-43
2024/01/10 02:34:23;;;;;;;3.22;2.10;;;;;;;0.41;76.66;101747.53;5044701;28;20057;-46
2024/01/10 02:36:50;;;;;;;7.47;3.08;;;;;;;0.41;76.28;101739.88;5041158;28;20053;-50
2024/01/10 02:39:19;;;;;;;6.85;2.42;;;;;;;0.41;76.21;101742.44;5040403;28;20053;-43
2024/01/10 02:41:45;;;;;;;2.17;1.95;;;;;;;0.39;77.28;101738.88;5045221;28;20057;-46
2024/01/10 02:44:14;;;;;;;3.58;1.85;;;;;;;0.39;76.23;101738.88;5038740;28;20044;-48
2024/01/10 02:46:42;;;;;;;3.28;2.08;;;;;;;0.39;77.16;101743.97;5038650;28;20110;-49
2024/01/10 02:49:09;;;;;;;1.65;1.52;;;;;;;0.39;76.71;101741.44;5035542;28;20107;-50
2024/01/10 02:51:36;;;;;;;3.15;2.13;;;;;;;0.39;76.53;101741.44;5042833;28;20045;-42
2024/01/10 02:54:02;;;;;;;3.85;1.63;;;;;;;0.37;77.50;101735.34;5037326;28;20232;-50
2024/01/10 02:56:29;;;;;;;3.60;1.85;;;;;;;0.40;77.23;101739.78;5041433;28;20053;-44
2024/01/10 02:58:55;;;;;;;1.92;1.77;;;;;;;0.39;77.00;101738.88;5044231;28;20071;-48
2024/01/10 03:01:22;;;;;;;6.90;1.90;;;;;;;0.38;76.20;101737.13;5046065;28;20049;-46
2024/01/10 03:03:49;;;;;;;2.05;1.85;;;;;;;0.40;76.53;101735.53;5046219;28;20524;-46
2024/01/10 03:06:17;;;;;;;5.18;1.60;;;;;;;0.41;77.41;101737.34;5043968;28;20057;-50
2024/01/10 03:08:44;;;;;;;2.47;1.92;;;;;;;0.41;76.57;101733.88;5044183;28;20049;-43
2024/01/10 03:11:11;;;;;;;4.68;1.50;;;;;;;0.38;76.49;101732.03;5043562;28;20052;-43
2024/01/10 03:13:38;;;;;;;1.83;1.73;;;;;;;0.37;76.49;101730.25;5038096;28;20045;-48
2024/01/10 03:16:06;;;;;;;3.10;2.50;;;;;;;0.36;77.10;101731.03;5043267;28;20041;-51
2024/01/10 03:18:32;;;;;;;1.75;1.63;;;;;;;0.33;77.14;101730.81;5042376;28;20046;-48
2024/01/10 03:20:59;;;;;;;2.45;1.65;;;;;;;0.35;76.57;101736.91;5034724;28;20049;-46
2024/01/10 03:23:27;;;;;;;4.72;0.63;;;;;;;0.35;76.25;101736.91;5043103;28;20056;-47
2024/01/10 03:25:57;;;;;;;2.33;0.70;;;;;;;0.35;76.54;101734.38;5041285;28;20457;-48
2024/01/10 03:28:24;;;;;;;2.28;2.15;;;;;;;0.33;77.42;101728.28;5040464;28;20052;-50
2024/01/10 03:30:51;;;;;;;5.45;2.42;;;;;;;0.35;77.32;101729.28;5042743;28;20063;-51
2024/01/10 03:33:17;;;;;;;5.45;2.70;;;;;;;0.36;77.19;101731.03;5040539;28;20060;-49
2024/01/10 03:35:45;;;;;;;2.47;2.10;;;;;;;0.36;77.42;101724.28;5036365;28;20060;-44
2024/01/10 03:38:11;;;;;;;2.33;2.10;;;;;;;0.38;76.39;101726.94;5043503;28;20056;-42
2024/01/10 03:40:38;;;;;;;8.30;0.93;;;;;;;0.36;77.28;101725.94;5043989;28;20131;-43
2024/01/10 03:43:06;;;;;;;2.28;1.88;;;;;;;0.39;76.86;101723.59;5037910;28;20137;-51
2024/01/10 03:45:33;;;;;;;8.57;2.03;;;;;;;0.35;76.82;101722.50;5036319;28;20417;-47
2024/01/10 03:47:59;;;;;;;8.48;1.52;;;;;;;0.36;76.42;101723.38;5041148;28;20483;-43
2024/01/10 03:50:26;;;;;;;2.30;1.58;;;;;;;0.34;76.84;101720.72;5041562;28;20108;-48
2024/01/10 03:52:53;;;;;;;2.80;1.50;;;;;;;0.34;76.65;101722.41;5037753;28;20390;-47
2024/01/10 03:55:20;;;;;;;4.57;1.48;;;;;;;0.32;76.57;101721.41;5035644;28;20132;-47
2024/01/10 03:57:46;;;;;;;2.53;0.40;;;;;;;0.33;76.56;101718.06;5037290;28;20048;-49
2024/01/10 04:00:13;;;;;;;4.20;2.05;;;;;;;0.34;76.30;101719.88;5042655;28;20045;-48
2024/01/10 04:02:40;;;;;;;3.85;2.13;;;;;;;0.34;76.74;101714.75;5033971;28;20099;-47
2024/01/10 04:05:09;;;;;;;4.50;3.67;;;;;;;0.35;77.36;101716.53;5042004;28;20529;-44
2024/01/10 04:07:36;;;;;;;1.88;1.40;;;;;;;0.33;77.08;101703.69;5040591;28;20516;-50
2024/01/10 04:10:04;;;;;;;2.15;2.05;;;;;;;0.35;76.90;101711.44;5043336;28;20057;-45
2024/01/10 04:12:31;;;;;;;3.20;2.67;;;;;;;0.35;77.32;101711.44;5044904;28;20080;-51
2024/01/10 04:14:58;;;;;;;6.53;0.40;;;;;;;0.34;77.39;101704.56;5036004;28;20051;-49
2024/01/10 04:17:24;;;;;;;2.42;1.48;;;;;;;0.34;77.62;101702.03;5040046;28;20802;-49
2024/01/10 04:19:51;;;;;;;2.35;2.15;;;;;;;0.36;77.69;101702.97;5046692;28;20072;-41
2024/01/10 04:22:18;;;;;;;1.58;1.48;;;;;;;0.34;77.21;101702.03;5047781;28;20049;-44
2024/01/10 04:24:45;;;;;;;2.10;1.77;;;;;;;0.37;77.57;101705.63;5035285;28;20387;-52
2024/01/10 04:27:11;;;;;;;1.35;0.22;;;;;;;0.37;77.62;101699.66;5047815;28;20060;-50
2024/01/10 04:29:38;;;;;;;2.13;1.67;;;;;;;0.37;77.14;101707.28;5042774;28;20045;-52
2024/01/10 04:32:05;;;;;;;4.47;1.75;;;;;;;0.36;77.42;101708.09;5042498;28;20095;-46
2024/01/10 04:34:32;;;;;;;3.22;1.58;;;;;;;0.37;77.08;101707.28;5044044;28;20045;-50
2024/01/10 04:36:59;;;;;;;2.33;2.20;;;;;;;0.37;76.92;101709.84;5046673;28;20041;-46
2024/01/10 04:39:25;;;;;;;3.03;2.15;;;;;;;0.38;77.00;101709.09;5042120;28;20061;-49
2024/01/10 04:41:52;;;;;;;3.50;2.15;;;;;;;0.40;76.93;101706.63;5043663;28;20488;-47
2024/01/10 04:44:19;;;;;;;3.20;2.38;;;;;;;0.41;76.84;101711.84;5042879;28;20140;-50
2024/01/10 04:46:47;;;;;;;9.02;1.83;;;;;;;0.40;76.92;101709.19;5037081;28;20138;-52
2024/01/10 04:49:14;;;;;;;11.80;1.73;;;;;;;0.41;77.44;101709.28;5044948;28;20072;-50
2024/01/10 04:51:40;;;;;;;2.17;1.88;;;;;;;0.40;77.42;101704.94;5046304;28;20072;-46
2024/01/10 04:54:07;;;;;;;8.57;1.55;;;;;;;0.39;77.19;101708.28;5043974;28;20091;-51
2024/01/10 04:56:36;;;;;;;5.75;2.08;;;;;;;0.38;76.85;101706.53;5044483;28;20068;-49
2024/01/10 04:59:04;;;;;;;8.77;2.40;;;;;;;0.39;77.04;101700.66;5045216;28;20057;-43
2024/01/10 05:01:31;;;;;;;1.95;1.77;;;;;;;0.38;76.85;101706.53;5039561;28;20045;-54
2024/01/10 05:03:58;;;;;;;2.08;1.90;;;;;;;0.36;76.79;101700.44;5046638;28;20040;-47
2024/01/10 05:06:25;;;;;;;2.00;1.83;;;;;;;0.37;76.49;101704.75;5044686;28;20056;-45
2024/01/10 05:08:52;;;;;;;4.50;2.45;;;;;;;0.38;76.60;101706.53;5046358;28;20045;-44
2024/01/10 05:11:18;;;;;;;2.33;1.73;;;;;;;0.39;76.14;101703.19;5035481;28;20053;-51
2024/01/10 05:13:46;;;;;;;3.78;1.77;;;;;;;0.41;76.12;101705.84;5032725;28;20049;-47
2024/01/10 05:16:13;;;;;;;1.00;0.35;;;;;;;0.38;77.09;101699.75;5046546;28;20041;-46
2024/01/10 05:18:41;;;;;;;2.50;1.85;;;;;;;0.40;76.44;101704.94;5041950;28;20055;-48
2024/01/10 05:21:08;;;;;;;3.40;2.05;;;;;;;0.36;76.52;101696.22;5041978;28;20048;-46
2024/01/10 05:23:35;;;;;;;0.77;0.40;;;;;;;0.37;76.48;101703.09;5037967;28;20045;-46
2024/01/10 05:26:02;;;;;;;4.97;2.50;;;;;;;0.37;76.44;101699.66;5039675;28;20064;-50
2024/01/10 05:28:30;;;;;;;1.90;1.80;;;;;;;0.37;76.36;101694.53;5039967;28;20495;-47
2024/01/10 05:30:58;;;;;;;0.75;0.28;;;;;;;0.35;76.39;101697.03;5043859;28;20053;-48
2024/01/10 05:33:26;;;;;;;1.58;1.42;;;;;;;0.34;76.44;101696.91;5039716;28;20102;-50
2024/01/10 05:35:53;;;;;;;1.65;1.55;;;;;;;0.35;76.94;101696.13;5040849;28;20052;-46
2024/01/10 05:38:19;;;;;;;2.17;1.70;;;;;;;0.33;76.86;101693.47;5037540;28;20050;-51
2024/01/10 05:40:46;;;;;;;2.13;1.88;;;;;;;0.36;76.79;101697.88;5038494;28;20053;-48
2024/01/10 05:43:15;;;;;;;5.88;2.28;;;;;;;0.33;76.72;101688.38;5035472;28;20731;-47
2024/01/10 05:45:42;;;;;;;6.15;1.55;;;;;;;0.33;76.28;101690.03;5037843;28;20045;-45
2024/01/10 05:48:09;;;;;;;2.58;1.80;;;;;;;0.34;76.59;101694.38;5044256;28;20078;-45
2024/01/10 05:50:37;;;;;;;5.05;2.17;;;;;;;0.34;75.99;101691.81;5038645;28;20045;-50
2024/01/10 05:53:05;;;;;;;1.65;1.55;;;;;;;0.34;76.75;101684.19;5033509;28;20063;-46
2024/01/10 05:55:32;;;;;;;1.27;0.52;;;;;;;0.33;76.50;101688.38;5039285;28;20559;-45
2024/01/10 05:57:59;;;;;;;2.05;0.43;;;;;;;0.31;76.96;101679.75;5038116;28;20489;-48
2024/01/10 06:00:25;;;;;;;1.55;0.63;;;;;;;0.31;76.33;101683.97;5039169;28;20052;-47
2024/01/10 06:02:53;;;;;;;4.45;2.05;;;;;;;0.32;76.43;101686.63;5038628;28;20049;-45
2024/01/10 06:05:20;;;;;;;2.55;1.60;;;;;;;0.32;77.13;101680.63;5034320;28;20052;-45
2024/01/10 06:07:47;;;;;;;2.05;1.85;;;;;;;0.33;76.92;101688.38;5040005;28;20049;-44
2024/01/10 06:10:14;;;;;;;3.83;0.50;;;;;;;0.34;77.00;101679.94;5037352;28;22244;-44
2024/01/10 06:12:41;;;;;;;0.77;0.30;;;;;;;0.36;76.23;101682.59;5039485;28;20049;-47
2024/01/10 06:15:08;;;;;;;3.85;2.13;;;;;;;0.36;76.31;101685.13;5038830;28;20048;-46
2024/01/10 06:17:34;;;;;;;10.73;2.53;;;;;;;0.35;76.09;101691.03;5040775;28;20510;-49
2024/01/10 06:20:03;;;;;;;2.13;1.90;;;;;;;0.37;76.51;101679.25;5037127;28;20095;-44
2024/01/10 06:22:30;;;;;;;0.88;0.85;;;;;;;0.33;77.10;101687.47;5036897;28;20484;-47
2024/01/10 06:24:57;;;;;;;0.52;0.52;;;;;;;0.37;76.67;101684.34;5038288;28;20049;-49
2024/01/10 06:27:25;;;;;;;2.03;1.83;;;;;;;0.37;76.69;101679.25;5042827;28;20080;-49
2024/01/10 06:29:52;;;;;;;1.35;0.32;;;;;;;0.34;76.66;101694.38;5041678;28;20045;-43
2024/01/10 06:32:18;;;;;;;2.05;1.73;;;;;;;0.33;76.92;101687.47;5048829;28;20512;-46
2024/01/10 06:34:45;;;;;;;13.18;2.03;;;;;;;0.34;76.83;101687.59;5046762;28;20048;-47
2024/01/10 06:37:12;;;;;;;2.03;1.75;;;;;;;0.36;76.48;101687.69;5036306;28;20080;-47
2024/01/10 06:39:38;;;;;;;1.40;0.52;;;;;;;0.38;76.96;101688.69;5046459;28;20124;-50
2024/01/10 06:42:06;;;;;;;4.07;0.73;;;;;;;0.36;76.75;101695.34;5037664;28;20449;-50
2024/01/10 06:44:33;;;;;;;5.63;1.98;;;;;;;0.41;76.25;101696.53;5039253;28;20055;-49
2024/01/10 06:47:02;;;;;;;3.47;2.03;;;;;;;0.42;77.21;101693.19;5038485;28;20070;-52
2024/01/10 06:49:31;;;;;;;2.38;2.08;;;;;;;0.45;76.72;101692.50;5036594;28;20068;-50
2024/01/10 06:51:59;;;;;;;1.77;1.67;;;;;;;0.47;77.37;101696.94;5036428;28;20055;-51
2024/01/10 06:54:26;;;;;;;3.60;1.70;;;;;;;0.53;76.07;101691.34;5039146;28;20046;-48
2024/01/10 06:56:53;;;;;;;1.88;1.75;;;;;;;0.54;77.15;101697.34;5034834;28;20517;-52
2024/01/10 06:59:19;;;;;;;1.33;0.65;;;;;;;0.50;76.45;101696.22;5038395;28;20578;-50
2024/01/10 07:01:51;;;;;;;3.88;2.13;;;;;;;0.53;76.18;101700.69;5037612;28;20497;-46
2024/01/10 07:04:22;;;;;;;2.05;1.83;;;;;;;0.53;76.44;101696.44;5036235;28;20041;-42
2024/01/10 07:06:50;;;;;;;2.35;1.65;;;;;;;0.53;76.82;101700.69;5035370;28;20057;-49
2024/01/10 07:09:19;;;;;;;1.98;1.80;;;;;;;0.51;76.95;101698.88;5037269;28;20060;-53
2024/01/10 07:11:47;;;;;;;1.63;1.52;;;;;;;0.53;76.12;101700.69;5040169;28;20134;-50
2024/01/10 07:14:14;;;;;;;1.92;1.83;;;;;;;0.55;76.88;101696.53;5036689;28;20045;-43
2024/01/10 07:16:45;;;;;;;2.20;2.00;;;;;;;0.56;76.88;101690.66;5034077;28;20490;-47
2024/01/10 07:19:13;;;;;;;7.25;2.25;;;;;;;0.58;76.05;101694.19;5039465;28;20044;-47
2024/01/10 07:21:41;;;;;;;1.92;1.83;;;;;;;0.60;76.60;101700.25;5027256;28;20063;-47
2024/01/10 07:24:09;;;;;;;1.80;1.67;;;;;;;0.60;76.48;101697.72;5036650;28;20049;-43
2024/01/10 07:26:37;;;;;;;2.03;1.85;;;;;;;0.63;76.22;101703.03;5037634;28;20049;-47
2024/01/10 07:29:08;;;;;;;2.00;1.77;;;;;;;0.66;76.54;101703.22;5036951;28;20044;-47
2024/01/10 07:31:35;;;;;;;3.17;2.10;;;;;;;0.68;76.66;101705.88;5034063;28;20076;-46
2024/01/10 07:34:04;;;;;;;2.17;1.48;;;;;;;0.68;76.48;101703.31;5031643;28;20052;-47
2024/01/10 07:36:34;;;;;;;4.15;2.00;;;;;;;0.69;75.68;101703.44;5034692;28;20056;-52
2024/01/10 07:39:01;;;;;;;2.72;1.60;;;;;;;0.69;76.77;101708.53;5018833;28;20069;-50
2024/01/10 07:41:30;;;;;;;5.97;2.42;;;;;;;0.71;75.99;101712.03;5037871;28;20048;-46
2024/01/10 07:43:57;;;;;;;2.53;2.33;;;;;;;0.70;76.60;101712.84;5034873;28;20080;-47
2024/01/10 07:46:23;;;;;;;5.03;2.63;;;;;;;0.66;76.38;101718.53;5039149;28;20116;-43
2024/01/10 07:48:50;;;;;;;3.40;1.73;;;;;;;0.68;76.50;101721.19;5037175;28;20414;-48
2024/01/10 07:51:17;;;;;;;2.35;2.03;;;;;;;0.65;75.38;101726.97;5034469;28;20053;-47
2024/01/10 07:53:44;;;;;;;3.92;1.88;;;;;;;0.63;75.78;101729.41;5033272;28;20044;-50
2024/01/10 07:56:13;;;;;;;2.33;1.95;;;;;;;0.63;76.15;101724.31;5038069;28;20045;-43
2024/01/10 07:58:40;;;;;;;4.45;0.85;;;;;;;0.64;76.76;101725.19;5035698;28;20057;-47
2024/01/10 08:01:10;;;;;;;2.63;2.05;;;;;;;0.64;75.38;101730.28;5035356;28;20046;-46
2024/01/10 08:03:37;;;;;;;1.63;0.20;;;;;;;0.60;76.50;101725.75;5036258;28;20044;-48
2024/01/10 08:06:04;;;;;;;2.00;1.90;;;;;;;0.64;76.00;101726.06;5037243;28;20049;-48
2024/01/10 08:08:44;;;;;;;3.70;1.73;;;;;;;0.61;75.52;101730.09;5029760;28;20056;-45
2024/01/10 08:11:11;;;;;;;3.13;2.95;;;;;;;0.60;75.58;101726.66;5037081;28;20048;-49
2024/01/10 08:13:37;;;;;;;1.83;1.73;;;;;;;0.60;76.59;101724.13;5037528;28;20049;-48
2024/01/10 08:16:04;;;;;;;1.00;0.70;;;;;;;0.61;76.07;101725.00;5038430;28;20451;-48
2024/01/10 08:18:31;;;;;;;1.67;1.38;;;;;;;0.62;75.92;101729.31;5035565;28;20048;-52
2024/01/10 08:20:58;;;;;;;2.22;2.13;;;;;;;0.63;76.23;101733.63;5037559;28;20568;-49
2024/01/10 08:23:26;;;;;;;1.45;0.28;;;;;;;0.66;76.59;101730.38;5035321;28;20136;-50
2024/01/10 08:25:52;;;;;;;1.55;1.40;;;;;;;0.70;75.52;101727.25;5037041;28;20800;-46
2024/01/10 08:28:19;;;;;;;6.05;3.00;;;;;;;0.76;76.20;101735.31;5032372;28;20044;-45
2024/01/10 08:30:46;;;;;;;1.63;1.52;;;;;;;0.83;75.18;101731.47;5033874;28;20057;-46
2024/01/10 08:33:17;;;;;;;1.00;0.70;;;;;;;0.91;76.36;101735.41;5042840;28;20661;-50
2024/01/10 08:35:44;;;;;;;1.90;1.70;;;;;;;0.93;75.54;101733.84;5039904;28;20048;-50
2024/01/10 08:38:12;;;;;;;4.85;2.40;;;;;;;0.98;74.89;101734.16;5038826;28;20044;-52
2024/01/10 08:40:39;;;;;;;1.85;1.70;;;;;;;1.10;75.05;101741.69;5042050;28;20048;-50
2024/01/10 08:43:06;;;;;;;1.92;1.83;;;;;;;1.24;75.79;101735.78;5043471;28;20140;-51
2024/01/10 08:45:34;;;;;;;0.93;0.32;;;;;;;1.44;75.49;101738.69;5039205;28;20460;-46
2024/01/10 08:48:06;;;;;;;2.47;2.28;;;;;;;1.72;74.92;101735.28;5045197;28;20056;-46
2024/01/10 08:50:36;;;;;;;2.55;1.58;;;;;;;2.03;75.49;101736.25;5038623;28;20050;-46
2024/01/10 08:53:05;;;;;;;2.85;1.65;;;;;;;2.41;75.36;101729.06;5043490;28;20068;-46
2024/01/10 08:55:32;;;;;;;5.85;1.85;;;;;;;2.89;75.17;101733.44;5048847;28;20049;-50
2024/01/10 08:57:58;;;;;;;3.25;2.28;;;;;;;3.14;74.60;101729.69;5048503;28;20052;-50
2024/01/10 09:00:25;;;;;;;2.70;1.83;;;;;;;3.26;73.87;101740.59;5038589;28;20057;-48
2024/01/10 09:02:53;;;;;;;2.25;2.15;;;;;;;3.29;73.14;101735.66;5044468;28;20048;-42
2024/01/10 09:05:21;;;;;;;3.50;3.03;;;;;;;3.46;72.97;101733.13;5048857;28;20040;-44
2024/01/10 09:07:48;;;;;;;2.38;2.03;;;;;;;3.85;73.38;101725.78;5045291;28;20052;-46
2024/01/10 09:10:15;;;;;;;3.97;1.83;;;;;;;4.36;74.08;101727.47;5050106;28;20130;-47
2024/01/10 09:12:45;;;;;;;2.92;1.65;;;;;;;4.77;73.31;101724.31;5050461;28;20049;-50
2024/01/10 09:15:14;;;;;;;1.98;1.88;;;;;;;4.89;72.10;101727.44;5040450;28;20045;-44
2024/01/10 09:17:42;;;;;;;2.95;2.05;;;;;;;4.71;71.51;101724.00;5036448;28;20049;-53
2024/01/10 09:20:10;;;;;;;1.58;1.48;;;;;;;4.45;71.14;101726.16;5047730;28;20500;-46
2024/01/10 09:22:37;;;;;;;3.35;1.83;;;;;;;4.17;70.52;101723.09;5040452;28;20049;-46
2024/01/10 09:25:05;;;;;;;2.33;1.70;;;;;;;3.93;71.23;101730.41;5042082;28;20061;-47
2024/01/10 09:27:34;;;;;;;2.05;1.88;;;;;;;3.73;70.98;101727.69;5046832;28;20559;-49
2024/01/10 09:30:02;;;;;;;4.35;1.60;;;;;;;3.68;71.53;101724.03;5049927;28;20045;-48
2024/01/10 09:32:30;;;;;;;4.13;1.50;;;;;;;4.06;72.19;101727.66;5045753;28;20053;-50
2024/01/10 09:34:58;;;;;;;2.42;2.13;;;;;;;5.02;73.62;101733.16;5042171;28;20045;-51
2024/01/10 09:37:25;;;;;;;1.85;1.75;;;;;;;6.27;71.83;101730.97;5045162;28;20044;-49
2024/01/10 09:39:52;;;;;;;2.90;2.38;;;;;;;7.36;70.85;101722.38;5042383;28;20052;-44
2024/01/10 09:42:25;;;;;;;2.00;1.90;;;;;;;8.29;69.98;101729.06;5042613;28;20053;-46
2024/01/10 09:44:53;;;;;;;3.78;1.58;;;;;;;8.76;68.17;101722.84;5040170;28;20095;-47
2024/01/10 09:47:20;;;;;;;3.15;1.95;;;;;;;8.98;66.76;101720.13;5045022;28;20053;-47
2024/01/10 09:49:47;;;;;;;4.22;2.08;;;;;;;9.20;66.31;101714.72;5040428;28;20044;-49
2024/01/10 09:52:24;;;;;;;2.05;1.95;;;;;;;9.26;65.58;101714.91;5038987;28;20053;-44
2024/01/10 09:54:56;;;;;;;2.40;2.30;;;;;;;9.25;64.64;101714.03;5041423;28;20084;-48
2024/01/10 09:57:25;;;;;;;2.92;2.70;;;;;;;9.29;64.86;101716.72;5044373;28;20054;-47
2024/01/10 09:59:53;;;;;;;2.97;1.63;;;;;;;9.32;63.68;101716.81;5033750;28;20139;-45
2024/01/10 10:02:22;;;;;;;3.50;0.40;;;;;;;9.51;63.54;101716.50;5041493;28;20442;-44
2024/01/10 10:07:28;;;;;;;2.42;0.40;;;;;;;9.81;62.83;101729.38;5028967;27;20410;-48
2024/01/10 10:09:57;;;;;;;1.85;0.55;;;;;;;10.11;63.18;101718.97;5006910;28;20057;-46
2024/01/10 10:12:45;;;;;;;0.57;0.50;;;;;;;10.06;61.22;101719.69;5001758;28;20514;-50
2024/01/10 10:15:15;;;;;;;3.80;0.55;;;;;;;9.80;60.71;101722.44;4999503;28;20064;-50
2024/01/10 10:17:46;;;;;;;;;;;;;;;9.47;60.33;101719.84;5001481;28;20081;-46
2024/01/10 10:20:20;;;;;;;0.82;0.43;;;;;;;9.46;60.58;101718.06;5008523;28;20023;-53
2024/01/10 10:25:47;;;;;;;1.35;0.50;;;;;;;9.24;60.37;101719.16;5038562;28;20409;-47
2024/01/10 10:28:15;;;;;;;0.95;0.73;;;;;;;8.90;60.96;101718.13;5009433;28;20547;-46
2024/01/10 10:30:55;;;;;;;0.80;0.60;;;;;;;8.56;61.28;101712.75;5003949;28;20054;-51
2024/01/10 10:33:22;;;;;;;0.55;0.38;;;;;;;8.15;60.56;101716.56;5005215;28;20089;-52
2024/01/10 10:35:50;;;;;;;3.33;1.08;;;;;;;8.29;62.13;101711.00;5005955;28;20057;-47
2024/01/10 10:38:23;;;;;;;2.65;0.50;;;;;;;8.64;62.32;101713.88;5004309;28;20046;-45
2024/01/10 10:40:51;;;;;;;1.27;1.05;;;;;;;8.85;61.55;101711.09;5009831;28;20070;-50
2024/01/10 10:43:20;;;;;;;0.40;0.20;;;;;;;8.93;61.18;101721.69;5000972;28;20054;-52
2024/01/10 10:45:49;;;;;;;0.60;0.45;;;;;;;8.70;60.94;101708.03;4989355;28;20042;-51
2024/01/10 10:48:18;;;;;;;1.25;0.65;;;;;;;8.17;60.54;101707.16;4992394;28;20554;-46
2024/01/10 10:50:55;;;;;;;0.43;0.43;;;;;;;7.69;60.85;101714.13;4973071;28;20056;-49
2024/01/10 10:53:25;;;;;;;0.63;0.55;;;;;;;7.37;61.76;101708.69;4984818;28;20133;-49
2024/01/10 10:55:54;;;;;;;0.57;0.45;;;;;;;7.13;63.17;101703.47;4984294;28;20581;-46
2024/01/10 10:58:22;;;;;;;1.45;0.35;;;;;;;6.92;63.56;101713.00;4985396;28;20555;-48
2024/01/10 11:00:51;;;;;;;0.82;0.68;;;;;;;6.72;63.62;101708.78;4986406;28;20097;-47
2024/01/10 11:03:20;;;;;;;1.70;0.50;;;;;;;6.58;63.10;101706.50;4988696;28;20050;-50
2024/01/10 11:05:48;;;;;;;0.50;0.20;;;;;;;6.37;63.77;101715.09;4985577;28;20058;-49
2024/01/10 11:08:19;;;;;;;0.90;0.35;;;;;;;6.24;64.76;101703.44;4982689;28;21435;-53
2024/01/10 11:10:48;;;;;;;5.20;1.40;;;;;;;6.14;65.01;101712.44;4982125;28;20054;-49
2024/01/10 11:16:08;;;;;;;1.05;0.40;;;;;;;5.89;65.28;101703.66;5048092;28;20405;-51
2024/01/10 11:19:14;;;;;;;0.77;0.60;;;;;;;5.72;65.90;101699.47;5013116;28;20160;-44
2024/01/10 11:24:19;;;;;;;0.75;0.65;;;;;;;5.47;66.46;101711.25;5099067;27;20387;-46
2024/01/10 11:26:48;;;;;;;1.25;0.77;;;;;;;5.52;67.05;101714.88;5067542;28;20076;-50
2024/01/10 11:29:16;;;;;;;1.48;0.50;;;;;;;5.51;66.64;101695.13;5067047;28;20074;-45
2024/01/10 11:31:51;;;;;;;2.30;1.60;;;;;;;5.51;66.40;101690.84;5059247;28;20648;-50
2024/01/10 11:34:25;;;;;;;2.58;1.23;;;;;;;5.62;66.37;101693.94;5060072;28;20417;-45
2024/01/10 11:37:12;;;;;;;2.00;0.90;;;;;;;5.70;67.97;101695.94;5056006;28;20053;-48
2024/01/10 11:39:42;;;;;;;1.95;0.60;;;;;;;5.70;67.34;101696.81;5059980;28;20093;-49
2024/01/10 11:42:10;;;;;;;1.33;0.95;;;;;;;5.72;67.48;101694.31;5057421;28;20689;-47
2024/01/10 11:44:54;;;;;;;2.08;1.05;;;;;;;5.59;66.58;101693.78;5051909;28;20466;-46
2024/01/10 11:47:21;;;;;;;1.98;0.28;;;;;;;5.52;67.63;101696.88;5051117;28;20079;-46
2024/01/10 11:49:57;;;;;;;1.13;0.28;;;;;;;5.46;67.14;101686.31;5060738;28;20131;-51